Time;durP1;ratioP1;P1;durP2;ratioP2;P2;SDS_P1;SDS_P2;PMS_P1;PMS_P2;Temp;Humidity;BMP_temperature;BMP_pressure;BME280_temperature;BME280_humidity;BME280_pressure;Samples;Min_cycle;Max_cycle;Signal;HPM_P1;HPM_P2
2021/08/19 00:01:41;;;;;;;21.58;14.63;;;17.10;99.90;;;;;;5091898;28;20099;-69
2021/08/19 00:04:07;;;;;;;19.50;14.63;;;17.00;99.90;;;;;;5093430;28;20027;-69
2021/08/19 00:06:33;;;;;;;21.17;14.20;;;17.00;99.90;;;;;;5091926;28;20049;-69
2021/08/19 00:08:59;;;;;;;20.45;14.45;;;17.00;99.90;;;;;;5092658;28;20051;-69
2021/08/19 00:11:25;;;;;;;23.42;16.35;;;17.00;99.90;;;;;;5093055;28;20103;-69
2021/08/19 00:13:50;;;;;;;20.83;14.70;;;17.00;99.90;;;;;;5093583;28;20102;-69
2021/08/19 00:16:16;;;;;;;22.73;15.35;;;17.00;99.90;;;;;;5093587;28;20376;-69
2021/08/19 00:18:41;;;;;;;23.17;14.98;;;17.00;99.90;;;;;;5092793;28;20051;-69
2021/08/19 00:21:08;;;;;;;20.70;14.20;;;17.00;99.90;;;;;;5093539;28;20414;-69
2021/08/19 00:23:35;;;;;;;22.08;15.10;;;17.00;99.90;;;;;;5093565;28;20016;-69
2021/08/19 00:26:01;;;;;;;24.70;15.55;;;17.00;99.90;;;;;;5093922;28;20465;-69
2021/08/19 00:28:27;;;;;;;21.80;16.15;;;16.90;99.90;;;;;;5097214;28;20462;-69
2021/08/19 00:30:52;;;;;;;21.52;16.17;;;16.90;99.90;;;;;;5097108;28;20039;-69
2021/08/19 00:33:18;;;;;;;25.85;16.95;;;17.00;99.90;;;;;;5097091;28;20059;-69
2021/08/19 00:35:43;;;;;;;24.17;17.20;;;16.90;99.90;;;;;;5096733;28;20036;-69
2021/08/19 00:38:09;;;;;;;23.38;16.73;;;16.90;99.90;;;;;;5096887;28;20028;-69
2021/08/19 00:40:35;;;;;;;23.65;16.60;;;16.90;99.90;;;;;;5095776;28;20035;-69
2021/08/19 00:43:04;;;;;;;26.77;17.67;;;16.90;99.90;;;;;;5095166;28;20025;-69
2021/08/19 00:45:30;;;;;;;29.48;18.52;;;16.90;99.90;;;;;;5096822;28;20027;-69
2021/08/19 00:47:56;;;;;;;26.08;17.83;;;17.00;99.90;;;;;;5096216;28;20074;-69
2021/08/19 00:50:21;;;;;;;25.13;17.90;;;16.90;99.90;;;;;;5096722;28;20070;-69
2021/08/19 00:52:47;;;;;;;31.52;19.67;;;17.00;99.90;;;;;;5096663;28;20077;-69
2021/08/19 00:55:14;;;;;;;27.42;18.63;;;17.00;99.90;;;;;;5096614;28;20085;-69
2021/08/19 00:57:42;;;;;;;28.40;19.80;;;17.00;99.90;;;;;;5096211;28;20073;-69
2021/08/19 01:00:09;;;;;;;30.17;20.77;;;17.00;99.90;;;;;;5096546;28;20024;-69
2021/08/19 01:02:37;;;;;;;34.80;22.33;;;17.00;99.90;;;;;;5096498;28;20016;-69
2021/08/19 01:05:05;;;;;;;34.92;24.42;;;16.90;99.90;;;;;;5096404;28;20024;-69
2021/08/19 01:07:31;;;;;;;34.88;22.92;;;16.90;99.90;;;;;;5096406;28;20446;-69
2021/08/19 01:09:58;;;;;;;34.42;23.35;;;16.90;99.90;;;;;;5096355;28;20523;-69
2021/08/19 01:12:24;;;;;;;32.95;22.75;;;16.90;99.90;;;;;;5096027;28;20035;-69
2021/08/19 01:14:50;;;;;;;37.45;23.77;;;16.90;99.90;;;;;;5096275;28;20020;-69
2021/08/19 01:17:17;;;;;;;37.05;23.77;;;16.90;99.90;;;;;;5094227;28;20044;-69
2021/08/19 01:19:45;;;;;;;36.03;25.35;;;16.90;99.90;;;;;;5095630;28;20101;-69
2021/08/19 01:22:11;;;;;;;36.33;25.20;;;16.90;99.90;;;;;;5095819;28;20522;-69
2021/08/19 01:24:37;;;;;;;38.85;26.30;;;16.90;99.90;;;;;;5096109;28;20055;-69
2021/08/19 01:27:03;;;;;;;39.13;26.38;;;16.90;99.90;;;;;;5094543;28;20024;-69
2021/08/19 01:29:29;;;;;;;36.63;26.15;;;16.90;99.90;;;;;;5094223;28;20039;-69
2021/08/19 01:31:57;;;;;;;38.08;26.90;;;16.90;99.90;;;;;;5095928;28;20024;-69
2021/08/19 01:34:23;;;;;;;39.90;27.30;;;16.90;99.90;;;;;;5095899;28;20062;-69
2021/08/19 01:36:49;;;;;;;41.88;29.75;;;16.90;99.90;;;;;;5094011;28;20024;-69
2021/08/19 01:39:14;;;;;;;40.58;29.70;;;16.90;99.90;;;;;;5095705;28;20447;-69
2021/08/19 01:41:40;;;;;;;41.97;30.15;;;16.90;99.90;;;;;;5094241;28;20020;-69
2021/08/19 01:44:05;;;;;;;44.28;30.60;;;16.90;99.90;;;;;;5095416;28;20024;-69
2021/08/19 01:46:31;;;;;;;44.17;30.27;;;16.90;99.90;;;;;;5093815;28;20024;-69
2021/08/19 01:48:56;;;;;;;42.67;31.50;;;16.90;99.90;;;;;;5095549;28;20036;-69
2021/08/19 01:51:22;;;;;;;46.35;32.67;;;16.90;99.90;;;;;;5093829;28;20028;-69
2021/08/19 01:53:49;;;;;;;49.85;33.75;;;16.90;99.90;;;;;;5095481;28;20386;-69
2021/08/19 01:56:22;;;;;;;48.50;33.90;;;16.80;99.90;;;;;;5093729;28;20020;-69
2021/08/19 01:58:50;;;;;;;49.72;33.92;;;16.80;99.90;;;;;;5095323;28;20114;-69
2021/08/19 02:01:19;;;;;;;51.97;35.78;;;16.80;99.90;;;;;;5094120;28;20054;-69
2021/08/19 02:03:44;;;;;;;53.60;36.47;;;16.80;99.90;;;;;;5094775;28;20016;-69
2021/08/19 02:06:10;;;;;;;58.72;40.17;;;16.70;99.90;;;;;;5093807;28;20051;-69
2021/08/19 02:08:35;;;;;;;56.38;38.53;;;16.70;99.90;;;;;;5095213;28;20103;-69
2021/08/19 02:11:01;;;;;;;62.63;41.25;;;16.80;99.90;;;;;;5095166;28;20410;-69
2021/08/19 02:13:26;;;;;;;63.45;39.80;;;16.70;99.90;;;;;;5095127;28;20039;-69
2021/08/19 02:15:52;;;;;;;58.13;40.45;;;16.70;99.90;;;;;;5093866;28;20035;-69
2021/08/19 02:18:17;;;;;;;58.90;40.22;;;16.70;99.90;;;;;;5094346;28;20055;-69
2021/08/19 02:20:43;;;;;;;69.00;44.25;;;16.70;99.90;;;;;;5093132;28;20017;-69
2021/08/19 02:23:08;;;;;;;64.43;43.25;;;16.70;99.90;;;;;;5094984;28;20174;-69
2021/08/19 02:25:34;;;;;;;65.78;42.67;;;16.70;99.90;;;;;;5094907;28;20032;-69
2021/08/19 02:27:59;;;;;;;72.07;44.72;;;16.80;99.90;;;;;;5094855;28;20051;-69
2021/08/19 02:30:25;;;;;;;67.38;45.00;;;16.80;99.90;;;;;;5094807;28;20052;-69
2021/08/19 02:32:58;;;;;;;71.75;44.92;;;16.80;99.90;;;;;;5094509;28;20024;-69
2021/08/19 02:35:26;;;;;;;70.50;45.70;;;16.80;99.90;;;;;;5094493;28;20354;-69
2021/08/19 02:37:53;;;;;;;69.82;45.25;;;16.80;99.90;;;;;;5093336;28;20050;-69
2021/08/19 02:40:19;;;;;;;71.28;46.70;;;16.80;99.90;;;;;;5094381;28;20373;-69
2021/08/19 02:42:44;;;;;;;72.90;48.20;;;16.80;99.90;;;;;;5094625;28;20027;-69
2021/08/19 02:45:11;;;;;;;72.65;47.63;;;16.80;99.90;;;;;;5094575;28;20078;-69
2021/08/19 02:47:36;;;;;;;75.05;48.53;;;16.80;99.90;;;;;;5094105;28;20032;-69
2021/08/19 02:50:02;;;;;;;76.03;47.63;;;16.80;99.90;;;;;;5093360;28;20484;-69
2021/08/19 02:52:28;;;;;;;72.70;48.17;;;16.80;99.90;;;;;;5092968;28;20034;-69
2021/08/19 02:54:53;;;;;;;73.88;48.35;;;16.80;99.90;;;;;;5094383;28;20031;-69
2021/08/19 02:57:19;;;;;;;80.53;49.78;;;16.80;99.90;;;;;;5093740;28;20031;-69
2021/08/19 02:59:44;;;;;;;85.43;52.55;;;16.80;99.90;;;;;;5092888;28;20024;-69
2021/08/19 03:02:10;;;;;;;89.82;51.85;;;16.70;99.90;;;;;;5094322;28;20441;-69
2021/08/19 03:04:35;;;;;;;83.35;50.47;;;16.70;99.90;;;;;;5094294;28;20042;-68
2021/08/19 03:07:01;;;;;;;82.60;52.67;;;16.70;99.90;;;;;;5093957;28;20024;-69
2021/08/19 03:09:27;;;;;;;89.93;54.05;;;16.70;99.90;;;;;;5094208;28;20028;-69
2021/08/19 03:11:53;;;;;;;93.95;55.05;;;16.70;99.90;;;;;;5092711;28;20028;-68
2021/08/19 03:14:18;;;;;;;67.72;45.38;;;16.60;99.90;;;;;;5092733;28;20024;-69
2021/08/19 03:16:44;;;;;;;68.47;44.78;;;16.60;99.90;;;;;;5093965;28;20028;-69
2021/08/19 03:19:10;;;;;;;64.25;40.95;;;16.50;99.90;;;;;;5094051;28;20423;-69
2021/08/19 03:21:37;;;;;;;64.88;42.17;;;16.50;99.90;;;;;;5093813;28;20024;-69
2021/08/19 03:24:03;;;;;;;61.70;41.33;;;16.50;99.90;;;;;;5094056;28;20472;-69
2021/08/19 03:26:31;;;;;;;61.78;39.55;;;16.50;99.90;;;;;;5092206;28;20028;-69
2021/08/19 03:28:57;;;;;;;61.08;40.10;;;16.40;99.90;;;;;;5093405;28;20385;-69
2021/08/19 03:31:22;;;;;;;62.28;40.15;;;16.40;99.90;;;;;;5093955;28;20032;-69
2021/08/19 03:33:48;;;;;;;67.72;43.05;;;16.40;99.90;;;;;;5093401;28;20032;-69
2021/08/19 03:36:14;;;;;;;70.57;44.00;;;16.40;99.90;;;;;;5093665;28;20024;-69
2021/08/19 03:38:40;;;;;;;79.20;47.42;;;16.40;99.90;;;;;;5093887;28;20028;-69
2021/08/19 03:41:05;;;;;;;75.72;47.03;;;16.40;99.90;;;;;;5093930;28;20450;-69
2021/08/19 03:43:31;;;;;;;68.18;43.30;;;16.40;99.90;;;;;;5093862;28;20035;-69
2021/08/19 03:45:56;;;;;;;62.67;39.85;;;16.30;99.90;;;;;;5093302;28;20024;-69
2021/08/19 03:48:23;;;;;;;49.63;32.88;;;16.30;99.90;;;;;;5093561;28;20031;-69
2021/08/19 03:50:49;;;;;;;44.80;29.85;;;16.30;99.90;;;;;;5093840;28;20570;-69
2021/08/19 03:53:14;;;;;;;38.67;26.10;;;16.20;99.90;;;;;;5093810;28;20036;-69
2021/08/19 03:55:40;;;;;;;38.58;25.60;;;16.20;99.90;;;;;;5092507;28;20031;-69
2021/08/19 03:58:05;;;;;;;34.08;24.60;;;16.10;99.90;;;;;;5093665;28;20480;-69
2021/08/19 04:00:31;;;;;;;32.50;21.85;;;16.10;99.90;;;;;;5094735;28;20028;-69
2021/08/19 04:02:57;;;;;;;30.30;20.85;;;16.10;99.90;;;;;;5097397;28;20020;-69
2021/08/19 04:05:22;;;;;;;31.17;19.63;;;16.10;99.90;;;;;;5097330;28;20027;-69
2021/08/19 04:07:48;;;;;;;26.88;19.50;;;16.00;99.90;;;;;;5097353;28;20569;-69
2021/08/19 04:10:13;;;;;;;28.30;19.33;;;16.00;99.90;;;;;;5095681;28;20465;-69
2021/08/19 04:12:39;;;;;;;27.20;19.98;;;16.00;99.90;;;;;;5078767;28;20089;-69
2021/08/19 04:15:06;;;;;;;25.63;19.15;;;15.90;99.90;;;;;;5097463;28;20346;-69
2021/08/19 04:17:31;;;;;;;25.67;18.90;;;15.90;99.90;;;;;;5096995;28;20101;-69
2021/08/19 04:19:57;;;;;;;24.80;18.10;;;15.90;99.90;;;;;;5097373;28;20020;-69
2021/08/19 04:22:23;;;;;;;27.23;18.77;;;15.90;99.90;;;;;;5095827;28;20031;-69
2021/08/19 04:24:49;;;;;;;24.40;18.25;;;15.90;99.90;;;;;;5097293;28;20048;-69
2021/08/19 04:27:14;;;;;;;25.30;19.35;;;15.90;99.90;;;;;;5095789;28;20024;-69
2021/08/19 04:29:40;;;;;;;26.75;18.13;;;15.80;99.90;;;;;;5095362;28;20024;-69
2021/08/19 04:32:06;;;;;;;28.15;19.58;;;15.90;99.90;;;;;;5097135;28;20020;-69
2021/08/19 04:34:31;;;;;;;26.85;19.20;;;15.90;99.90;;;;;;5097065;28;20043;-69
2021/08/19 04:36:57;;;;;;;29.45;19.73;;;15.90;99.90;;;;;;5097024;28;20027;-69
2021/08/19 04:39:23;;;;;;;29.38;20.25;;;15.90;99.90;;;;;;5096605;28;20039;-69
2021/08/19 04:41:50;;;;;;;30.17;20.52;;;15.90;99.90;;;;;;5096912;28;20144;-69
2021/08/19 04:44:16;;;;;;;31.58;21.40;;;15.90;99.90;;;;;;5096906;28;20040;-69
2021/08/19 04:46:42;;;;;;;28.83;20.20;;;16.00;99.90;;;;;;5096815;28;20408;-69
2021/08/19 04:49:07;;;;;;;27.58;18.88;;;15.90;99.90;;;;;;5096701;28;20036;-69
2021/08/19 04:51:35;;;;;;;27.45;19.30;;;15.90;99.90;;;;;;5096715;28;20024;-69
2021/08/19 04:54:02;;;;;;;31.08;18.92;;;16.00;99.90;;;;;;5096118;28;20024;-69
2021/08/19 04:56:30;;;;;;;34.67;20.73;;;16.00;99.90;;;;;;5096655;28;20059;-69
2021/08/19 04:58:56;;;;;;;32.90;22.73;;;16.00;99.90;;;;;;5096560;28;20429;-69
2021/08/19 05:01:22;;;;;;;34.15;22.08;;;16.00;99.90;;;;;;5095098;28;20123;-69
2021/08/19 05:03:48;;;;;;;34.63;23.25;;;16.00;99.90;;;;;;5094697;28;20485;-69
2021/08/19 05:06:13;;;;;;;41.13;24.58;;;16.00;99.90;;;;;;5096177;28;20021;-69
2021/08/19 05:08:41;;;;;;;37.10;24.17;;;16.00;99.90;;;;;;5096121;28;20035;-69
2021/08/19 05:11:06;;;;;;;38.80;27.98;;;16.00;99.90;;;;;;5094575;28;20024;-69
2021/08/19 05:13:32;;;;;;;49.72;31.65;;;16.10;99.90;;;;;;5095317;28;20064;-69
2021/08/19 05:15:57;;;;;;;53.05;31.77;;;16.10;99.90;;;;;;5077933;28;20165;-69
2021/08/19 05:18:25;;;;;;;49.95;33.55;;;16.10;99.90;;;;;;5095564;28;20048;-69
2021/08/19 05:20:51;;;;;;;64.15;39.40;;;16.10;99.90;;;;;;5095614;28;20045;-69
2021/08/19 05:23:16;;;;;;;65.43;39.42;;;16.10;99.90;;;;;;5094256;28;20110;-69
2021/08/19 05:25:42;;;;;;;59.92;38.17;;;16.20;99.90;;;;;;5095760;28;20369;-69
2021/08/19 05:28:07;;;;;;;64.50;39.35;;;16.20;99.90;;;;;;5095710;28;20103;-69
2021/08/19 05:30:33;;;;;;;66.18;40.10;;;16.20;99.90;;;;;;5094349;28;20131;-69
2021/08/19 05:32:58;;;;;;;70.55;42.58;;;16.20;99.90;;;;;;5095861;28;20062;-69
2021/08/19 05:35:24;;;;;;;71.60;40.78;;;16.20;99.90;;;;;;5095873;28;20369;-69
2021/08/19 05:37:49;;;;;;;66.97;39.65;;;16.20;99.90;;;;;;5093831;28;20435;-69
2021/08/19 05:40:15;;;;;;;69.88;41.63;;;16.20;99.90;;;;;;5094690;28;20093;-69
2021/08/19 05:42:40;;;;;;;66.43;42.25;;;16.20;99.90;;;;;;5094131;28;20050;-69
2021/08/19 05:45:07;;;;;;;64.03;39.38;;;16.30;99.90;;;;;;5095606;28;20476;-69
2021/08/19 05:47:32;;;;;;;63.50;39.05;;;16.30;99.90;;;;;;5093716;28;20020;-69
2021/08/19 05:49:58;;;;;;;63.53;40.45;;;16.30;99.90;;;;;;5094910;28;20103;-69
2021/08/19 05:52:23;;;;;;;67.05;40.67;;;16.40;99.90;;;;;;5094867;28;20044;-69
2021/08/19 05:54:49;;;;;;;67.43;39.72;;;16.40;99.90;;;;;;5095187;28;20493;-69
2021/08/19 05:57:16;;;;;;;68.32;39.58;;;16.40;99.90;;;;;;5095410;28;20024;-69
2021/08/19 05:59:42;;;;;;;67.38;41.38;;;16.40;99.90;;;;;;5095317;28;20025;-69
2021/08/19 06:02:08;;;;;;;68.78;42.08;;;16.50;99.90;;;;;;5094197;28;20145;-69
2021/08/19 06:04:35;;;;;;;76.15;43.95;;;16.50;99.90;;;;;;5094195;28;20024;-69
2021/08/19 06:07:01;;;;;;;68.43;41.95;;;16.50;99.90;;;;;;5093387;28;20024;-69
2021/08/19 06:09:26;;;;;;;76.55;46.35;;;16.50;99.90;;;;;;5089766;28;20039;-69
2021/08/19 06:11:52;;;;;;;81.78;47.63;;;16.60;99.90;;;;;;5093006;28;20024;-69
2021/08/19 06:14:18;;;;;;;80.90;48.65;;;16.60;99.90;;;;;;5089378;28;20051;-69
2021/08/19 06:16:43;;;;;;;84.97;49.10;;;16.60;99.90;;;;;;5083306;28;20034;-69
2021/08/19 06:19:09;;;;;;;81.45;48.83;;;16.70;99.90;;;;;;5092276;28;20039;-69
2021/08/19 06:21:34;;;;;;;90.10;51.10;;;16.70;99.90;;;;;;5093912;28;20034;-69
2021/08/19 06:24:00;;;;;;;90.18;52.05;;;16.70;99.90;;;;;;5092610;28;20046;-69
2021/08/19 06:26:26;;;;;;;100.22;54.83;;;16.80;99.90;;;;;;5093255;28;20024;-69
2021/08/19 06:28:52;;;;;;;94.55;52.83;;;16.80;99.90;;;;;;5093448;28;20020;-69
2021/08/19 06:31:18;;;;;;;99.78;55.33;;;16.80;99.90;;;;;;5092964;28;20028;-69
2021/08/19 06:33:44;;;;;;;94.45;52.42;;;16.80;99.90;;;;;;5092665;28;20028;-69
2021/08/19 06:36:12;;;;;;;105.75;57.22;;;16.70;99.90;;;;;;5094301;28;20450;-69
2021/08/19 06:38:37;;;;;;;103.78;56.90;;;16.80;99.90;;;;;;5093535;28;20024;-69
2021/08/19 06:41:03;;;;;;;101.47;55.75;;;16.80;99.90;;;;;;5091841;28;20028;-71
2021/08/19 06:43:28;;;;;;;102.18;54.88;;;16.80;99.90;;;;;;5093931;28;20025;-71
2021/08/19 06:45:54;;;;;;;95.45;53.92;;;16.80;99.90;;;;;;5093194;28;20036;-71
2021/08/19 06:48:19;;;;;;;98.63;53.50;;;16.80;99.90;;;;;;5087458;28;20039;-70
2021/08/19 06:50:45;;;;;;;94.03;53.58;;;16.80;99.90;;;;;;5064535;28;20025;-70
2021/08/19 06:53:10;;;;;;;95.38;50.90;;;16.80;99.90;;;;;;5074062;28;20473;-71
2021/08/19 06:55:36;;;;;;;92.10;51.67;;;16.80;99.90;;;;;;5091361;28;20028;-70
2021/08/19 06:58:01;;;;;;;91.30;49.33;;;16.80;99.90;;;;;;5094158;28;20024;-71
2021/08/19 07:00:27;;;;;;;84.65;48.65;;;16.80;99.90;;;;;;5082147;28;20025;-70
2021/08/19 07:02:52;;;;;;;81.95;47.80;;;16.80;99.90;;;;;;5073981;28;20370;-71
2021/08/19 07:05:18;;;;;;;80.32;44.83;;;16.80;99.90;;;;;;5072004;28;20367;-69
2021/08/19 07:07:44;;;;;;;85.50;46.63;;;16.80;99.90;;;;;;5091234;28;20407;-68
2021/08/19 07:10:10;;;;;;;85.60;48.17;;;16.90;99.90;;;;;;5093509;28;20034;-68
2021/08/19 07:12:36;;;;;;;89.15;49.78;;;16.90;99.90;;;;;;5093825;28;20024;-69
2021/08/19 07:15:03;;;;;;;88.60;49.88;;;16.90;99.90;;;;;;5093672;28;20023;-68
2021/08/19 07:17:28;;;;;;;92.63;51.15;;;17.00;99.90;;;;;;5092186;28;20065;-67
2021/08/19 07:19:54;;;;;;;90.30;51.30;;;17.10;99.90;;;;;;5079563;28;20100;-68
2021/08/19 07:22:20;;;;;;;87.85;50.03;;;17.20;99.90;;;;;;5081681;28;20146;-68
2021/08/19 07:24:45;;;;;;;92.35;51.45;;;17.20;99.90;;;;;;5093299;28;20144;-69
2021/08/19 07:27:11;;;;;;;88.10;51.35;;;17.20;99.90;;;;;;5093097;28;20032;-69
2021/08/19 07:29:36;;;;;;;90.28;51.72;;;17.20;99.90;;;;;;5093598;28;20035;-69
2021/08/19 07:32:03;;;;;;;95.03;52.65;;;17.20;99.90;;;;;;5092464;28;20407;-69
2021/08/19 07:34:28;;;;;;;87.43;50.08;;;17.20;99.90;;;;;;5076711;28;20054;-69
2021/08/19 07:36:54;;;;;;;84.60;50.97;;;17.20;99.90;;;;;;5113634;28;20466;-69
2021/08/19 07:39:19;;;;;;;82.50;49.88;;;17.10;99.90;;;;;;5096657;28;20032;-68
2021/08/19 07:41:45;;;;;;;81.22;49.17;;;17.20;99.90;;;;;;5091426;28;20027;-68
2021/08/19 07:44:11;;;;;;;82.65;49.58;;;17.20;99.90;;;;;;5095037;28;20024;-68
2021/08/19 07:46:36;;;;;;;79.60;49.63;;;17.10;99.90;;;;;;5085558;28;20020;-69
2021/08/19 07:49:02;;;;;;;90.00;53.78;;;17.00;99.90;;;;;;5089281;28;20471;-69
2021/08/19 07:51:31;;;;;;;85.20;51.05;;;17.00;99.90;;;;;;5091530;28;20042;-69
2021/08/19 07:53:57;;;;;;;90.00;49.40;;;16.90;99.90;;;;;;5096326;28;20032;-69
2021/08/19 07:56:23;;;;;;;88.68;49.70;;;16.90;99.90;;;;;;5094910;28;20120;-69
2021/08/19 07:58:49;;;;;;;91.13;50.83;;;16.90;99.90;;;;;;5095835;28;20038;-69
2021/08/19 08:01:14;;;;;;;89.03;50.55;;;16.80;99.90;;;;;;5097015;28;20039;-69
2021/08/19 08:03:40;;;;;;;94.72;51.25;;;16.80;99.90;;;;;;5110104;28;20071;-70
2021/08/19 08:06:05;;;;;;;90.25;51.33;;;16.80;99.90;;;;;;5097479;28;20103;-69
2021/08/19 08:08:31;;;;;;;83.85;50.15;;;16.80;99.90;;;;;;5101406;28;20423;-69
2021/08/19 08:10:56;;;;;;;85.72;50.47;;;16.70;99.90;;;;;;5094109;28;20120;-69
2021/08/19 08:13:22;;;;;;;89.25;52.20;;;16.70;99.90;;;;;;5087762;28;20026;-69
2021/08/19 08:15:48;;;;;;;90.20;53.28;;;16.70;99.90;;;;;;5078347;28;20027;-69
2021/08/19 08:18:16;;;;;;;86.43;52.35;;;16.70;99.90;;;;;;5091779;28;20040;-69
2021/08/19 08:20:43;;;;;;;85.93;53.00;;;16.70;99.90;;;;;;5068399;28;20047;-68
2021/08/19 08:23:09;;;;;;;87.50;52.95;;;16.70;99.90;;;;;;5102284;28;20028;-67
2021/08/19 08:25:35;;;;;;;82.57;53.03;;;16.70;99.90;;;;;;5092849;28;20024;-68
2021/08/19 08:28:08;;;;;;;86.00;51.13;;;16.70;99.90;;;;;;5083651;28;20050;-66
2021/08/19 08:30:35;;;;;;;;;;;16.70;99.90;;;;;;5093258;28;20085;-68
2021/08/19 08:33:00;;;;;;;83.53;48.22;;;16.70;99.90;;;;;;5092916;28;19908;-67
2021/08/19 08:35:26;;;;;;;82.07;49.72;;;16.80;99.90;;;;;;5095536;28;20089;-67
2021/08/19 08:37:52;;;;;;;84.03;50.20;;;16.80;99.90;;;;;;5094923;28;20076;-67
2021/08/19 08:40:19;;;;;;;76.82;48.72;;;16.80;99.90;;;;;;5096506;28;20462;-67
2021/08/19 08:42:45;;;;;;;79.78;49.35;;;16.80;99.90;;;;;;5096207;28;20027;-68
2021/08/19 08:45:12;;;;;;;82.88;48.92;;;16.90;99.90;;;;;;5083005;28;20490;-67
2021/08/19 08:47:39;;;;;;;82.35;49.28;;;17.00;99.90;;;;;;5087613;28;20036;-67
2021/08/19 08:50:06;;;;;;;84.00;50.78;;;17.00;99.90;;;;;;5092852;28;20075;-67
2021/08/19 08:52:34;;;;;;;93.30;51.80;;;17.00;99.90;;;;;;5079661;28;20031;-67
2021/08/19 08:55:02;;;;;;;87.25;51.50;;;17.10;99.90;;;;;;5088990;28;20407;-67
2021/08/19 08:57:28;;;;;;;84.68;50.72;;;17.10;99.90;;;;;;5083774;28;20036;-67
2021/08/19 08:59:54;;;;;;;82.47;50.30;;;17.10;99.90;;;;;;5086342;28;20369;-67
2021/08/19 09:02:20;;;;;;;81.78;51.17;;;17.10;99.90;;;;;;5087250;28;20081;-67
2021/08/19 09:04:46;;;;;;;85.43;49.53;;;17.20;99.90;;;;;;5090336;28;20032;-67
2021/08/19 09:07:12;;;;;;;81.20;50.03;;;17.20;99.90;;;;;;5088067;28;20023;-67
2021/08/19 09:09:39;;;;;;;84.88;50.88;;;17.30;99.90;;;;;;5095630;28;20107;-67
2021/08/19 09:12:07;;;;;;;89.80;51.38;;;17.30;99.90;;;;;;5089863;28;20078;-67
2021/08/19 09:14:36;;;;;;;82.30;50.88;;;17.30;99.90;;;;;;5090734;28;20415;-67
2021/08/19 09:17:03;;;;;;;79.47;49.97;;;17.30;99.90;;;;;;5093047;28;20051;-68
2021/08/19 09:19:32;;;;;;;88.15;52.72;;;17.40;99.90;;;;;;5089345;28;20496;-69
2021/08/19 09:22:00;;;;;;;85.90;51.10;;;17.40;99.90;;;;;;5090814;28;20458;-69
2021/08/19 09:24:28;;;;;;;84.28;49.85;;;17.50;99.90;;;;;;5091630;28;20016;-70
2021/08/19 09:27:07;;;;;;;72.72;46.72;;;17.50;99.90;;;;;;5095477;28;20052;-70
2021/08/19 09:29:33;;;;;;;81.30;48.67;;;17.40;99.90;;;;;;5095500;28;20032;-69
2021/08/19 09:32:19;;;;;;;82.63;49.25;;;17.50;99.90;;;;;;5095327;28;20047;-70
2021/08/19 09:34:47;;;;;;;80.75;47.42;;;17.40;99.90;;;;;;5094687;28;20020;-69
2021/08/19 09:37:15;;;;;;;78.43;46.42;;;17.50;99.90;;;;;;5091033;28;20024;-70
2021/08/19 09:39:45;;;;;;;75.45;46.30;;;17.50;99.90;;;;;;5093981;28;20028;-70
2021/08/19 09:42:12;;;;;;;77.97;45.95;;;17.50;99.90;;;;;;5094850;28;20376;-70
2021/08/19 09:44:41;;;;;;;69.28;44.70;;;17.50;99.90;;;;;;5094142;28;20020;-69
2021/08/19 09:47:27;;;;;;;73.97;46.65;;;17.50;99.90;;;;;;5094981;28;20049;-69
2021/08/19 09:50:11;;;;;;;70.70;45.47;;;17.60;99.90;;;;;;5095190;28;20031;-70
2021/08/19 09:52:37;;;;;;;75.78;45.65;;;17.50;99.90;;;;;;5093601;28;20024;-69
2021/08/19 09:55:25;;;;;;;83.43;46.45;;;17.60;99.90;;;;;;5094983;28;20077;-69
2021/08/19 09:57:52;;;;;;;75.20;45.13;;;17.50;99.90;;;;;;5073760;28;20021;-70
2021/08/19 10:00:30;;;;;;;70.95;43.95;;;17.60;99.90;;;;;;5073153;28;20070;-69
2021/08/19 10:02:56;;;;;;;64.43;42.50;;;17.70;99.90;;;;;;5073562;28;20013;-70
2021/08/19 10:05:23;;;;;;;65.72;42.47;;;17.60;99.90;;;;;;5089139;28;20055;-69
2021/08/19 10:07:48;;;;;;;66.68;40.13;;;17.60;99.90;;;;;;5094542;28;20020;-69
2021/08/19 10:10:14;;;;;;;59.53;40.10;;;17.80;99.90;;;;;;5093227;28;20085;-70
2021/08/19 10:12:42;;;;;;;59.58;38.95;;;17.80;99.90;;;;;;5088949;28;20023;-71
2021/08/19 10:15:09;;;;;;;58.55;39.63;;;17.90;99.90;;;;;;5082383;28;20020;-71
2021/08/19 10:17:37;;;;;;;62.35;40.47;;;17.90;99.90;;;;;;5093062;28;20119;-70
2021/08/19 10:20:07;;;;;;;59.63;39.67;;;17.90;99.90;;;;;;5094521;28;20119;-71
2021/08/19 10:22:34;;;;;;;61.58;42.25;;;17.90;99.90;;;;;;5110597;28;20492;-70
2021/08/19 10:25:01;;;;;;;62.28;41.28;;;17.70;99.90;;;;;;5093564;28;20142;-70
2021/08/19 10:27:28;;;;;;;71.63;43.70;;;17.60;99.90;;;;;;5094710;28;20016;-72
2021/08/19 10:30:00;;;;;;;66.20;42.95;;;17.50;99.90;;;;;;5090197;28;20393;-71
2021/08/19 10:32:30;;;;;;;67.00;42.33;;;17.40;99.90;;;;;;5082617;28;20058;-70
2021/08/19 10:35:05;;;;;;;59.58;41.28;;;17.40;99.90;;;;;;5082752;28;20031;-70
2021/08/19 10:40:32;;;;;;;62.30;39.47;;;17.40;99.90;;;;;;5087947;27;20368;-70
2021/08/19 10:43:19;;;;;;;61.53;40.05;;;17.40;99.90;;;;;;5070438;28;20485;-71
2021/08/19 10:45:44;;;;;;;59.45;39.20;;;17.50;99.90;;;;;;5070585;28;20059;-70
2021/08/19 10:50:48;;;;;;;58.90;40.03;;;17.40;99.90;;;;;;5110085;27;20323;-70
2021/08/19 10:53:21;;;;;;;57.45;37.50;;;17.60;99.90;;;;;;5089141;28;20025;-70
2021/08/19 10:55:50;;;;;;;50.35;35.58;;;17.80;99.90;;;;;;5085910;28;20044;-70
2021/08/19 10:58:33;;;;;;;53.45;37.50;;;17.90;99.90;;;;;;5089850;28;20032;-70
2021/08/19 11:01:01;;;;;;;52.38;37.60;;;18.00;99.90;;;;;;5077659;28;20020;-70
2021/08/19 11:03:44;;;;;;;51.35;37.38;;;18.10;99.90;;;;;;5090961;28;20028;-70
2021/08/19 11:06:14;;;;;;;48.35;35.78;;;18.40;99.90;;;;;;5087385;28;20945;-70
2021/08/19 11:08:51;;;;;;;45.00;32.90;;;18.40;99.90;;;;;;5086094;28;20100;-70
2021/08/19 11:11:37;;;;;;;43.97;33.10;;;18.50;99.90;;;;;;5088149;28;20036;-71
2021/08/19 11:14:13;;;;;;;40.83;31.30;;;18.30;99.90;;;;;;5080407;28;20059;-70
2021/08/19 11:16:42;;;;;;;43.05;30.50;;;18.00;99.90;;;;;;5071024;28;20092;-70
2021/08/19 11:19:20;;;;;;;43.28;30.25;;;17.90;99.90;;;;;;5070668;28;20063;-70
2021/08/19 11:21:56;;;;;;;47.83;34.08;;;17.90;99.90;;;;;;5070658;28;20528;-70
2021/08/19 11:24:24;;;;;;;49.97;36.05;;;17.70;99.90;;;;;;5080748;28;20139;-70
2021/08/19 11:27:10;;;;;;;44.38;32.30;;;17.70;99.90;;;;;;5087215;28;20035;-71
2021/08/19 11:29:39;;;;;;;43.70;31.15;;;17.60;99.90;;;;;;5089249;28;20457;-68
2021/08/19 11:32:11;;;;;;;40.72;28.58;;;17.50;99.90;;;;;;5089061;28;20027;-70
2021/08/19 11:34:38;;;;;;;41.25;27.55;;;17.30;99.90;;;;;;5086992;28;20450;-71
2021/08/19 11:37:06;;;;;;;44.50;29.65;;;17.30;99.90;;;;;;5088936;28;20028;-70
2021/08/19 11:39:32;;;;;;;48.70;33.47;;;17.20;99.90;;;;;;5090620;28;20107;-71
2021/08/19 11:42:01;;;;;;;43.67;32.22;;;17.30;99.90;;;;;;5089758;28;20032;-68
2021/08/19 11:44:27;;;;;;;49.65;34.75;;;17.30;99.90;;;;;;5089205;28;20038;-69
2021/08/19 11:47:02;;;;;;;49.28;34.20;;;17.50;99.90;;;;;;5090372;28;20020;-70
2021/08/19 11:49:28;;;;;;;50.28;34.17;;;17.60;99.90;;;;;;5089014;28;20055;-71
2021/08/19 11:52:08;;;;;;;51.97;34.60;;;17.60;99.90;;;;;;5090326;28;20092;-70
2021/08/19 11:54:41;;;;;;;50.67;35.20;;;17.60;99.90;;;;;;5089532;28;20442;-67
2021/08/19 11:57:06;;;;;;;54.38;35.67;;;17.60;99.90;;;;;;5089982;28;20031;-67
2021/08/19 11:59:32;;;;;;;51.33;36.00;;;17.60;99.90;;;;;;5090070;28;20029;-68
2021/08/19 12:01:58;;;;;;;55.42;36.53;;;17.50;99.90;;;;;;5077490;28;20374;-67
2021/08/19 12:04:28;;;;;;;54.20;36.80;;;17.50;99.90;;;;;;5076385;28;20428;-68
2021/08/19 12:06:56;;;;;;;51.25;34.05;;;17.50;99.90;;;;;;5075062;28;20534;-68
2021/08/19 12:09:22;;;;;;;53.35;35.03;;;17.50;99.90;;;;;;5055044;28;20029;-67
2021/08/19 12:11:49;;;;;;;60.38;38.72;;;17.40;99.90;;;;;;5056542;28;20478;-68
2021/08/19 12:14:15;;;;;;;58.65;39.95;;;17.40;99.90;;;;;;5054972;28;20013;-67
2021/08/19 12:16:50;;;;;;;65.75;40.20;;;17.40;99.90;;;;;;5056407;28;20029;-67
2021/08/19 12:19:18;;;;;;;67.07;41.92;;;17.50;99.90;;;;;;5054533;28;20457;-68
2021/08/19 12:24:39;;;;;;;63.60;43.20;;;17.60;99.90;;;;;;5112158;27;20380;-67
2021/08/19 12:27:14;;;;;;;70.82;44.00;;;17.60;99.90;;;;;;5111797;28;20028;-68
2021/08/19 12:29:52;;;;;;;71.63;45.88;;;17.60;99.90;;;;;;5110709;28;20023;-69
2021/08/19 12:32:37;;;;;;;69.68;44.47;;;17.70;99.90;;;;;;5110527;28;20365;-66
2021/08/19 12:37:55;;;;;;;62.05;42.17;;;17.70;99.90;;;;;;5071516;28;20398;-67
2021/08/19 12:40:29;;;;;;;62.80;42.90;;;17.70;99.90;;;;;;5071818;28;20029;-67